createdAt,value
2018-02-16T00:05:15.186Z,51
2018-02-16T00:15:15.298Z,48
2018-02-16T00:25:15.211Z,32
2018-02-16T00:35:15.307Z,42
2018-02-16T00:45:15.582Z,73
2018-02-16T00:55:15.307Z,77
2018-02-16T01:05:15.376Z,60
2018-02-16T01:15:15.281Z,57
2018-02-16T01:25:15.383Z,43
2018-02-16T01:35:15.338Z,51
2018-02-16T01:45:15.415Z,34
2018-02-16T01:59:33.149Z,29
2018-02-16T02:05:15.229Z,31
2018-02-16T02:15:15.592Z,28
2018-02-16T02:25:15.445Z,34
2018-02-16T02:35:15.496Z,32
2018-02-16T02:45:15.462Z,31
2018-02-16T02:55:15.427Z,40
2018-02-16T03:05:15.392Z,39
2018-02-16T03:15:15.445Z,31
2018-02-16T03:25:15.405Z,28
2018-02-16T03:35:15.444Z,27
2018-02-16T03:45:15.420Z,26
2018-02-16T03:55:15.381Z,30
2018-02-16T04:05:15.425Z,29
2018-02-16T04:15:15.400Z,22
2018-02-16T04:25:15.435Z,31
2018-02-16T04:35:15.424Z,29
2018-02-16T04:45:15.488Z,25
2018-02-16T04:55:15.405Z,25
2018-02-16T05:05:15.520Z,25
2018-02-16T05:15:15.498Z,29
2018-02-16T05:25:15.426Z,27
2018-02-16T05:35:15.475Z,30
2018-02-16T05:45:15.469Z,32
2018-02-16T05:55:15.492Z,34
2018-02-16T06:05:15.490Z,32
2018-02-16T06:15:15.568Z,33
2018-02-16T06:25:15.497Z,33
2018-02-16T06:35:15.582Z,32
2018-02-16T06:45:15.505Z,37
2018-02-16T06:55:15.570Z,31
2018-02-16T07:05:15.525Z,31
2018-02-16T07:15:15.530Z,25
2018-02-16T07:25:15.601Z,39
2018-02-16T07:35:15.536Z,30
2018-02-16T07:45:15.719Z,29
2018-02-16T07:55:15.830Z,26
2018-02-16T08:05:15.629Z,29
2018-02-16T08:15:15.712Z,32
2018-02-16T08:25:15.627Z,27
2018-02-16T08:35:15.642Z,25
2018-02-16T08:45:15.597Z,32
2018-02-16T08:55:15.639Z,39
2018-02-16T09:05:15.620Z,35
2018-02-16T09:15:15.742Z,35
2018-02-16T09:25:15.620Z,28
2018-02-16T09:35:20.165Z,32
2018-02-16T09:45:15.877Z,33
2018-02-16T09:55:15.805Z,29
2018-02-16T10:05:15.806Z,31
2018-02-16T10:15:15.876Z,34
2018-02-16T10:25:15.757Z,28
2018-02-16T10:35:15.843Z,29
2018-02-16T10:45:15.827Z,35
2018-02-16T10:55:15.718Z,33
2018-02-16T11:05:15.710Z,32
2018-02-16T11:15:15.817Z,23
2018-02-16T11:25:15.860Z,20
2018-02-16T11:35:15.765Z,18
2018-02-16T11:45:15.808Z,17
2018-02-16T11:55:16.129Z,16
2018-02-16T12:05:15.848Z,16
2018-02-16T12:15:15.804Z,17
2018-02-16T12:25:15.926Z,15
2018-02-16T12:35:15.822Z,12
2018-02-16T12:45:15.993Z,10
2018-02-16T12:55:16.185Z,12
2018-02-16T13:05:16.036Z,7
2018-02-16T13:15:15.891Z,6
2018-02-16T13:25:15.901Z,7
2018-02-16T13:35:16.005Z,7
2018-02-16T13:45:15.972Z,9
2018-02-16T13:55:16.394Z,13
2018-02-16T14:05:15.938Z,5
2018-02-16T14:15:15.907Z,8
2018-02-16T14:25:17.593Z,5
2018-02-16T14:35:15.970Z,5
2018-02-16T14:45:15.909Z,6
2018-02-16T14:55:15.990Z,7
2018-02-16T15:05:15.932Z,10
2018-02-16T15:15:16.196Z,2
2018-02-16T15:25:15.964Z,4
2018-02-16T15:35:16.015Z,6
2018-02-16T15:45:15.935Z,9
2018-02-16T15:55:16.060Z,7
2018-02-16T16:05:16.139Z,10
2018-02-16T16:15:15.960Z,7
2018-02-16T16:25:15.991Z,8
2018-02-16T16:35:15.936Z,7
2018-02-16T16:45:16.019Z,9
2018-02-16T16:55:15.953Z,8
2018-02-16T17:05:16.040Z,9
2018-02-16T17:15:16.006Z,9
2018-02-16T17:31:43.256Z,11
2018-02-16T17:35:16.205Z,13
2018-02-16T17:45:16.517Z,8
2018-02-16T17:55:16.806Z,10
2018-02-16T18:05:16.081Z,13
2018-02-16T18:15:16.114Z,13
2018-02-16T18:25:16.053Z,11
2018-02-16T18:35:16.162Z,9
2018-02-16T18:45:16.126Z,13
2018-02-16T18:55:16.179Z,13
2018-02-16T19:05:16.130Z,13
2018-02-16T19:15:16.622Z,16
2018-02-16T19:25:16.286Z,15
2018-02-16T19:35:17.085Z,17
2018-02-16T19:45:18.475Z,16
2018-02-16T19:55:19.572Z,21
2018-02-16T20:05:21.131Z,22
2018-02-16T20:15:17.798Z,17
2018-02-16T20:25:20.187Z,29
2018-02-16T20:35:19.783Z,39
2018-02-16T20:45:16.609Z,28
2018-02-16T20:55:16.698Z,31
2018-02-16T21:05:16.678Z,27
2018-02-16T21:15:16.546Z,25
2018-02-16T21:25:16.283Z,27
2018-02-16T21:35:16.266Z,24
2018-02-16T21:45:16.211Z,25
2018-02-16T21:55:16.301Z,17
2018-02-16T22:05:16.318Z,22
2018-02-16T22:15:16.300Z,19
2018-02-16T22:25:16.283Z,21
2018-02-16T22:35:16.655Z,25
2018-02-16T22:45:16.352Z,25
2018-02-16T22:55:16.268Z,29
2018-02-16T23:05:16.386Z,22
2018-02-16T23:15:16.402Z,27
2018-02-16T23:25:16.325Z,20
2018-02-16T23:35:16.462Z,25
2018-02-16T23:45:16.326Z,23
2018-02-16T23:55:16.315Z,23
